Brooklyn Addition, UT

9:34 PM MST on December 10, 2016 (GMT -0700)
Ogden 1422 | | Change Station

Elev 4286 ft 41.24 °N, 111.98 °W | Updated 4 minutes ago

Light Rain
Light Rain
35.5 °F
Feels Like 36 °F
N
2.0
Wind Variable Wind from SSE
Gusts 2.0 mph

Today
High -- | Low -- °F
--% Chance of Precip.
Yesterday
High -- | Low -- °F
Precip. -- in
Pressure 29.92 in
Visibility 7.0 miles
Clouds Mostly Cloudy 900 ft
Overcast 1600 ft
Windchill 36 °F
Dew Point 34 °F
Humidity 93%
Rainfall 1.09 in
Snow Depth Not available.
7:43 AM 4:59 PM
Waxing Gibbous, 89% visible
SPECI KOGD 110411Z AUTO 17006KT 7SM -RA BKN009 OVC016 01/01 A2992 RMK AO2 P0002 T00110006
Pressure 29.92 in
Visibility 7.0 miles
Clouds Mostly Cloudy 900 ft
Overcast 1600 ft
Windchill 36 °F
Dew Point 34 °F
Humidity 93%
Rainfall 1.09 in
Snow Depth Not available.
7:43 AM 4:59 PM
Waxing Gibbous, 89% visible
SPECI KOGD 110411Z AUTO 17006KT 7SM -RA BKN009 OVC016 01/01 A2992 RMK AO2 P0002 T00110006

10-Day Weather Forecast

Almanac

Astronomy

Dec. 10, 2016 Rise Set
Actual Time
Civil Twilight
Nautical Twilight
Astronomical Twilight
Moon
Length of Visible Light
Length of Day
Tomorrow will be .
, % of the Moon is Illuminated

Today's Extremes

State Highs State Lows

Community

WunderPhotos

Upload Photos

1,956,705 photos uploaded!

WunderBlog® & News

Nearby

Air Quality

  Air Quality AQ Index Pollutant
Not available.

Snow Depth

Station Depth Elevation

Earthquake Activity

City Distance Mag. Time & Date
Minimum magnitude displayed is 2.5.

Coastal Water Temperatures

Place Temperature

Stations

Nearby Weather Stations

Station Location Temp. Windchill Dew Point Humidity Wind Precip. Elev Updated Type
                   

Watches & Warnings

There are currently no watches in effect.